sensor_id;sensor_type;location;lat;lon;timestamp;pressure;altitude;pressure_sealevel;temperature;humidity
11223;BME280;5668;52.012;8.724;2023-03-11T00:01:22;98775.16;;;2.97;100.00
11223;BME280;5668;52.012;8.724;2023-03-11T00:03:49;98775.88;;;2.99;100.00
11223;BME280;5668;52.012;8.724;2023-03-11T00:06:16;98792.19;;;2.98;100.00
11223;BME280;5668;52.012;8.724;2023-03-11T00:08:45;98790.44;;;2.98;100.00
11223;BME280;5668;52.012;8.724;2023-03-11T00:11:12;98788.06;;;2.95;100.00
11223;BME280;5668;52.012;8.724;2023-03-11T00:13:39;98798.81;;;2.88;100.00
11223;BME280;5668;52.012;8.724;2023-03-11T00:16:06;98802.09;;;2.90;100.00
11223;BME280;5668;52.012;8.724;2023-03-11T00:18:34;98810.91;;;2.86;100.00
11223;BME280;5668;52.012;8.724;2023-03-11T00:21:01;98813.84;;;2.80;100.00
11223;BME280;5668;52.012;8.724;2023-03-11T00:23:28;98811.09;;;2.83;100.00
11223;BME280;5668;52.012;8.724;2023-03-11T00:25:57;98820.53;;;2.82;100.00
11223;BME280;5668;52.012;8.724;2023-03-11T00:28:27;98833.84;;;2.75;100.00
11223;BME280;5668;52.012;8.724;2023-03-11T00:30:55;98836.41;;;2.75;100.00
11223;BME280;5668;52.012;8.724;2023-03-11T00:33:22;98843.09;;;2.77;100.00
11223;BME280;5668;52.012;8.724;2023-03-11T00:35:50;98848.94;;;2.79;100.00
11223;BME280;5668;52.012;8.724;2023-03-11T00:38:17;98862.41;;;2.83;100.00
11223;BME280;5668;52.012;8.724;2023-03-11T00:40:46;98866.63;;;2.84;100.00
11223;BME280;5668;52.012;8.724;2023-03-11T00:43:16;98873.41;;;2.85;100.00
11223;BME280;5668;52.012;8.724;2023-03-11T00:45:43;98875.16;;;2.84;100.00
11223;BME280;5668;52.012;8.724;2023-03-11T00:48:11;98877.59;;;2.86;100.00
11223;BME280;5668;52.012;8.724;2023-03-11T00:50:41;98883.53;;;2.86;100.00
11223;BME280;5668;52.012;8.724;2023-03-11T00:53:10;98888.97;;;2.82;100.00
11223;BME280;5668;52.012;8.724;2023-03-11T00:55:37;98900.16;;;2.81;100.00
11223;BME280;5668;52.012;8.724;2023-03-11T00:58:06;98901.06;;;2.80;100.00
11223;BME280;5668;52.012;8.724;2023-03-11T01:00:35;98908.75;;;2.80;100.00
11223;BME280;5668;52.012;8.724;2023-03-11T01:03:02;98917.00;;;2.85;100.00
11223;BME280;5668;52.012;8.724;2023-03-11T01:05:31;98923.75;;;2.86;100.00
11223;BME280;5668;52.012;8.724;2023-03-11T01:07:59;98927.28;;;2.85;100.00
11223;BME280;5668;52.012;8.724;2023-03-11T01:10:27;98925.63;;;2.84;100.00
11223;BME280;5668;52.012;8.724;2023-03-11T01:12:55;98929.84;;;2.85;100.00
11223;BME280;5668;52.012;8.724;2023-03-11T01:15:24;98939.44;;;2.81;100.00
11223;BME280;5668;52.012;8.724;2023-03-11T01:17:53;98936.97;;;2.80;100.00
11223;BME280;5668;52.012;8.724;2023-03-11T01:20:20;98944.66;;;2.80;99.83
11223;BME280;5668;52.012;8.724;2023-03-11T01:22:48;98945.41;;;2.82;100.00
11223;BME280;5668;52.012;8.724;2023-03-11T01:25:17;98942.84;;;2.82;100.00
11223;BME280;5668;52.012;8.724;2023-03-11T01:27:44;98945.78;;;2.76;100.00
11223;BME280;5668;52.012;8.724;2023-03-11T01:30:13;98955.28;;;2.73;100.00
11223;BME280;5668;52.012;8.724;2023-03-11T01:32:41;98952.63;;;2.75;100.00
11223;BME280;5668;52.012;8.724;2023-03-11T01:35:11;98948.34;;;2.76;100.00
11223;BME280;5668;52.012;8.724;2023-03-11T01:37:39;98949.41;;;2.71;99.93
11223;BME280;5668;52.012;8.724;2023-03-11T01:40:07;98963.91;;;2.72;100.00
11223;BME280;5668;52.012;8.724;2023-03-11T01:42:37;98963.19;;;2.70;100.00
11223;BME280;5668;52.012;8.724;2023-03-11T01:45:24;98966.75;;;2.68;100.00
11223;BME280;5668;52.012;8.724;2023-03-11T01:47:52;98970.88;;;2.70;100.00
11223;BME280;5668;52.012;8.724;2023-03-11T01:50:22;98966.38;;;2.74;100.00
11223;BME280;5668;52.012;8.724;2023-03-11T01:52:49;98968.94;;;2.74;100.00
11223;BME280;5668;52.012;8.724;2023-03-11T01:55:18;98973.69;;;2.80;100.00
11223;BME280;5668;52.012;8.724;2023-03-11T01:57:47;98979.66;;;2.81;100.00
11223;BME280;5668;52.012;8.724;2023-03-11T02:00:15;98978.75;;;2.82;100.00
11223;BME280;5668;52.012;8.724;2023-03-11T02:02:46;98983.88;;;2.82;99.81
11223;BME280;5668;52.012;8.724;2023-03-11T02:05:19;98982.13;;;2.82;100.00
11223;BME280;5668;52.012;8.724;2023-03-11T02:07:50;98979.56;;;2.82;100.00
11223;BME280;5668;52.012;8.724;2023-03-11T02:10:18;98987.34;;;2.81;100.00
11223;BME280;5668;52.012;8.724;2023-03-11T02:12:50;98997.59;;;2.81;100.00
11223;BME280;5668;52.012;8.724;2023-03-11T02:15:18;98995.13;;;2.79;100.00
11223;BME280;5668;52.012;8.724;2023-03-11T02:17:45;99003.47;;;2.83;100.00
11223;BME280;5668;52.012;8.724;2023-03-11T02:20:24;99004.22;;;2.85;99.92
11223;BME280;5668;52.012;8.724;2023-03-11T02:22:54;99004.22;;;2.85;100.00
11223;BME280;5668;52.012;8.724;2023-03-11T02:25:29;99009.34;;;2.85;100.00
11223;BME280;5668;52.012;8.724;2023-03-11T02:28:09;99004.41;;;2.82;100.00
11223;BME280;5668;52.012;8.724;2023-03-11T02:30:39;99012.84;;;2.84;100.00
11223;BME280;5668;52.012;8.724;2023-03-11T02:33:08;99010.34;;;2.82;100.00
11223;BME280;5668;52.012;8.724;2023-03-11T02:35:36;99011.19;;;2.83;100.00
11223;BME280;5668;52.012;8.724;2023-03-11T02:38:04;99017.06;;;2.85;100.00
11223;BME280;5668;52.012;8.724;2023-03-11T02:40:48;99015.31;;;2.85;100.00
11223;BME280;5668;52.012;8.724;2023-03-11T02:43:24;99019.63;;;2.85;100.00
11223;BME280;5668;52.012;8.724;2023-03-11T02:45:57;99020.53;;;2.84;100.00
11223;BME280;5668;52.012;8.724;2023-03-11T02:48:25;99023.81;;;2.86;100.00
11223;BME280;5668;52.012;8.724;2023-03-11T02:50:57;99025.56;;;2.85;100.00
11223;BME280;5668;52.012;8.724;2023-03-11T02:53:29;99028.13;;;2.85;100.00
11223;BME280;5668;52.012;8.724;2023-03-11T02:55:58;99027.47;;;2.82;100.00
11223;BME280;5668;52.012;8.724;2023-03-11T02:58:27;99018.88;;;2.83;100.00
11223;BME280;5668;52.012;8.724;2023-03-11T03:00:57;99028.22;;;2.84;100.00
11223;BME280;5668;52.012;8.724;2023-03-11T03:03:25;99028.22;;;2.84;100.00
11223;BME280;5668;52.012;8.724;2023-03-11T03:05:52;99028.31;;;2.82;100.00
11223;BME280;5668;52.012;8.724;2023-03-11T03:08:19;99035.19;;;2.82;100.00
11223;BME280;5668;52.012;8.724;2023-03-11T03:10:46;99039.41;;;2.83;100.00
11223;BME280;5668;52.012;8.724;2023-03-11T03:13:14;99046.34;;;2.81;100.00
11223;BME280;5668;52.012;8.724;2023-03-11T03:15:42;99042.13;;;2.80;100.00
11223;BME280;5668;52.012;8.724;2023-03-11T03:18:09;99051.47;;;2.81;100.00
11223;BME280;5668;52.012;8.724;2023-03-11T03:20:37;99061.66;;;2.82;100.00
11223;BME280;5668;52.012;8.724;2023-03-11T03:23:04;99058.25;;;2.82;99.95
11223;BME280;5668;52.012;8.724;2023-03-11T03:25:31;99064.50;;;2.78;99.69
11223;BME280;5668;52.012;8.724;2023-03-11T03:27:58;99069.78;;;2.75;100.00
11223;BME280;5668;52.012;8.724;2023-03-11T03:30:26;99074.09;;;2.74;99.66
11223;BME280;5668;52.012;8.724;2023-03-11T03:32:55;99074.19;;;2.72;99.76
11223;BME280;5668;52.012;8.724;2023-03-11T03:35:22;99081.03;;;2.72;100.00
11223;BME280;5668;52.012;8.724;2023-03-11T03:37:50;99076.94;;;2.69;99.86
11223;BME280;5668;52.012;8.724;2023-03-11T03:40:17;99082.97;;;2.68;100.00
11223;BME280;5668;52.012;8.724;2023-03-11T03:42:45;99097.34;;;2.71;100.00
11223;BME280;5668;52.012;8.724;2023-03-11T03:45:12;99103.50;;;2.68;100.00
11223;BME280;5668;52.012;8.724;2023-03-11T03:47:40;99100.94;;;2.68;99.71
11223;BME280;5668;52.012;8.724;2023-03-11T03:50:10;99106.88;;;2.69;99.28
11223;BME280;5668;52.012;8.724;2023-03-11T03:52:38;99111.00;;;2.71;99.95
11223;BME280;5668;52.012;8.724;2023-03-11T03:55:06;99119.63;;;2.70;99.71
11223;BME280;5668;52.012;8.724;2023-03-11T03:57:33;99124.75;;;2.70;100.00
11223;BME280;5668;52.012;8.724;2023-03-11T04:00:00;99128.22;;;2.69;99.38
11223;BME280;5668;52.012;8.724;2023-03-11T04:02:30;99126.38;;;2.71;99.50
11223;BME280;5668;52.012;8.724;2023-03-11T04:04:57;99122.91;;;2.72;100.00
11223;BME280;5668;52.012;8.724;2023-03-11T04:07:26;99128.03;;;2.72;99.83
11223;BME280;5668;52.012;8.724;2023-03-11T04:09:53;99131.50;;;2.71;99.38
11223;BME280;5668;52.012;8.724;2023-03-11T04:12:20;99134.81;;;2.73;100.00
11223;BME280;5668;52.012;8.724;2023-03-11T04:14:47;99129.69;;;2.73;99.47
11223;BME280;5668;52.012;8.724;2023-03-11T04:17:14;99134.81;;;2.73;99.49
11223;BME280;5668;52.012;8.724;2023-03-11T04:19:42;99137.56;;;2.70;98.49
11223;BME280;5668;52.012;8.724;2023-03-11T04:22:10;99141.97;;;2.68;98.66
11223;BME280;5668;52.012;8.724;2023-03-11T04:24:38;99142.88;;;2.67;99.51
11223;BME280;5668;52.012;8.724;2023-03-11T04:27:06;99142.72;;;2.70;99.85
11223;BME280;5668;52.012;8.724;2023-03-11T04:29:33;99148.47;;;2.74;99.25
11223;BME280;5668;52.012;8.724;2023-03-11T04:32:00;99148.56;;;2.72;99.31
11223;BME280;5668;52.012;8.724;2023-03-11T04:34:27;99159.56;;;2.75;98.93
11223;BME280;5668;52.012;8.724;2023-03-11T04:36:54;99161.28;;;2.74;99.39
11223;BME280;5668;52.012;8.724;2023-03-11T04:39:22;99157.16;;;2.71;98.48
11223;BME280;5668;52.012;8.724;2023-03-11T04:41:50;99166.59;;;2.71;98.76
11223;BME280;5668;52.012;8.724;2023-03-11T04:44:18;99163.31;;;2.69;99.74
11223;BME280;5668;52.012;8.724;2023-03-11T04:46:45;99164.28;;;2.66;98.76
11223;BME280;5668;52.012;8.724;2023-03-11T04:49:12;99172.72;;;2.68;98.92
11223;BME280;5668;52.012;8.724;2023-03-11T04:51:40;99183.00;;;2.68;99.27
11223;BME280;5668;52.012;8.724;2023-03-11T04:54:07;99185.63;;;2.67;99.52
11223;BME280;5668;52.012;8.724;2023-03-11T04:56:35;99177.88;;;2.68;99.72
11223;BME280;5668;52.012;8.724;2023-03-11T04:59:03;99184.72;;;2.68;99.16
11223;BME280;5668;52.012;8.724;2023-03-11T05:01:30;99198.53;;;2.65;99.88
11223;BME280;5668;52.012;8.724;2023-03-11T05:03:58;99200.19;;;2.66;99.88
11223;BME280;5668;52.012;8.724;2023-03-11T05:06:25;99207.13;;;2.64;99.22
11223;BME280;5668;52.012;8.724;2023-03-11T05:08:52;99202.84;;;2.65;99.12
11223;BME280;5668;52.012;8.724;2023-03-11T05:11:19;99200.34;;;2.63;99.02
11223;BME280;5668;52.012;8.724;2023-03-11T05:13:47;99200.47;;;2.62;100.00
11223;BME280;5668;52.012;8.724;2023-03-11T05:16:15;99207.13;;;2.64;98.83
11223;BME280;5668;52.012;8.724;2023-03-11T05:18:42;99212.25;;;2.64;98.77
11223;BME280;5668;52.012;8.724;2023-03-11T05:21:09;99203.75;;;2.64;98.66
11223;BME280;5668;52.012;8.724;2023-03-11T05:23:37;99214.09;;;2.62;98.75
11223;BME280;5668;52.012;8.724;2023-03-11T05:26:04;99215.00;;;2.61;98.36
11223;BME280;5668;52.012;8.724;2023-03-11T05:28:31;99220.16;;;2.61;98.24
11223;BME280;5668;52.012;8.724;2023-03-11T05:30:59;99217.94;;;2.55;98.50
11223;BME280;5668;52.012;8.724;2023-03-11T05:33:27;99225.69;;;2.54;98.17
11223;BME280;5668;52.012;8.724;2023-03-11T05:36:03;99222.38;;;2.52;98.20
11223;BME280;5668;52.012;8.724;2023-03-11T05:38:31;99230.97;;;2.51;97.92
11223;BME280;5668;52.012;8.724;2023-03-11T05:40:58;99234.28;;;2.53;97.52
11223;BME280;5668;52.012;8.724;2023-03-11T05:43:25;99237.59;;;2.55;98.06
11223;BME280;5668;52.012;8.724;2023-03-11T05:45:52;99235.13;;;2.53;97.26
11223;BME280;5668;52.012;8.724;2023-03-11T05:48:20;99242.81;;;2.53;96.65
11223;BME280;5668;52.012;8.724;2023-03-11T05:50:48;99245.38;;;2.53;97.58
11223;BME280;5668;52.012;8.724;2023-03-11T05:53:15;99245.38;;;2.53;96.44
11223;BME280;5668;52.012;8.724;2023-03-11T05:55:43;99252.16;;;2.54;96.52
11223;BME280;5668;52.012;8.724;2023-03-11T05:58:10;99253.97;;;2.52;96.75
11223;BME280;5668;52.012;8.724;2023-03-11T06:00:37;99258.28;;;2.52;97.42
11223;BME280;5668;52.012;8.724;2023-03-11T06:03:05;99249.91;;;2.48;96.19
11223;BME280;5668;52.012;8.724;2023-03-11T06:05:32;99262.00;;;2.46;96.45
11223;BME280;5668;52.012;8.724;2023-03-11T06:08:00;99260.28;;;2.47;97.16
11223;BME280;5668;52.012;8.724;2023-03-11T06:10:28;99265.41;;;2.47;97.44
11223;BME280;5668;52.012;8.724;2023-03-11T06:12:55;99263.66;;;2.47;96.90
11223;BME280;5668;52.012;8.724;2023-03-11T06:15:22;99267.84;;;2.48;97.31
11223;BME280;5668;52.012;8.724;2023-03-11T06:17:49;99274.81;;;2.46;96.48
11223;BME280;5668;52.012;8.724;2023-03-11T06:20:18;99290.28;;;2.45;97.07
11223;BME280;5668;52.012;8.724;2023-03-11T06:22:47;99280.09;;;2.43;97.14
11223;BME280;5668;52.012;8.724;2023-03-11T06:25:17;99274.91;;;2.45;97.48
11223;BME280;5668;52.012;8.724;2023-03-11T06:27:48;99284.41;;;2.43;97.51
11223;BME280;5668;52.012;8.724;2023-03-11T06:30:16;99280.28;;;2.40;96.48
11223;BME280;5668;52.012;8.724;2023-03-11T06:32:44;99298.22;;;2.40;97.11
11223;BME280;5668;52.012;8.724;2023-03-11T06:35:11;99305.09;;;2.40;96.99
11223;BME280;5668;52.012;8.724;2023-03-11T06:37:39;99311.69;;;2.44;97.55
11223;BME280;5668;52.012;8.724;2023-03-11T06:40:08;99312.53;;;2.44;96.60
11223;BME280;5668;52.012;8.724;2023-03-11T06:42:39;99318.63;;;2.42;97.46
11223;BME280;5668;52.012;8.724;2023-03-11T06:45:07;99326.41;;;2.40;97.41
11223;BME280;5668;52.012;8.724;2023-03-11T06:47:34;99322.03;;;2.42;96.91
11223;BME280;5668;52.012;8.724;2023-03-11T06:50:02;99333.19;;;2.41;97.70
11223;BME280;5668;52.012;8.724;2023-03-11T06:52:32;99334.00;;;2.42;97.07
11223;BME280;5668;52.012;8.724;2023-03-11T06:54:59;99338.31;;;2.41;97.70
11223;BME280;5668;52.012;8.724;2023-03-11T06:57:26;99336.50;;;2.43;96.67
11223;BME280;5668;52.012;8.724;2023-03-11T06:59:55;99344.03;;;2.46;97.52
11223;BME280;5668;52.012;8.724;2023-03-11T07:02:23;99355.28;;;2.44;97.24
11223;BME280;5668;52.012;8.724;2023-03-11T07:04:50;99362.22;;;2.42;96.49
11223;BME280;5668;52.012;8.724;2023-03-11T07:07:17;99362.00;;;2.46;96.45
11223;BME280;5668;52.012;8.724;2023-03-11T07:09:46;99362.97;;;2.44;96.51
11223;BME280;5668;52.012;8.724;2023-03-11T07:12:13;99366.34;;;2.44;97.49
11223;BME280;5668;52.012;8.724;2023-03-11T07:14:40;99377.38;;;2.46;96.84
11223;BME280;5668;52.012;8.724;2023-03-11T07:17:09;99377.38;;;2.46;96.19
11223;BME280;5668;52.012;8.724;2023-03-11T07:19:36;99380.84;;;2.45;96.12
11223;BME280;5668;52.012;8.724;2023-03-11T07:22:05;99370.59;;;2.45;96.94
11223;BME280;5668;52.012;8.724;2023-03-11T07:24:32;99374.03;;;2.44;96.87
11223;BME280;5668;52.012;8.724;2023-03-11T07:26:59;99379.94;;;2.46;96.95
11223;BME280;5668;52.012;8.724;2023-03-11T07:29:26;99390.34;;;2.43;96.71
11223;BME280;5668;52.012;8.724;2023-03-11T07:31:54;99397.13;;;2.44;96.91
11223;BME280;5668;52.012;8.724;2023-03-11T07:34:22;99400.50;;;2.45;96.71
11223;BME280;5668;52.012;8.724;2023-03-11T07:36:49;99403.16;;;2.43;95.49
11223;BME280;5668;52.012;8.724;2023-03-11T07:39:17;99413.25;;;2.46;95.59
11223;BME280;5668;52.012;8.724;2023-03-11T07:41:45;99418.38;;;2.46;95.45
11223;BME280;5668;52.012;8.724;2023-03-11T07:44:13;99416.72;;;2.45;95.05
11223;BME280;5668;52.012;8.724;2023-03-11T07:46:42;99426.97;;;2.45;95.68
11223;BME280;5668;52.012;8.724;2023-03-11T07:49:09;99429.69;;;2.42;94.83
11223;BME280;5668;52.012;8.724;2023-03-11T07:51:38;99433.00;;;2.44;95.85
11223;BME280;5668;52.012;8.724;2023-03-11T07:54:08;99441.53;;;2.45;95.09
11223;BME280;5668;52.012;8.724;2023-03-11T07:56:36;99444.16;;;2.43;94.92
11223;BME280;5668;52.012;8.724;2023-03-11T07:59:04;99449.28;;;2.43;95.35
11223;BME280;5668;52.012;8.724;2023-03-11T08:01:33;99456.09;;;2.44;95.29
11223;BME280;5668;52.012;8.724;2023-03-11T08:04:04;99456.09;;;2.44;94.15
11223;BME280;5668;52.012;8.724;2023-03-11T08:06:32;99474.72;;;2.48;94.29
11223;BME280;5668;52.012;8.724;2023-03-11T08:09:04;99466.34;;;2.44;93.70
11223;BME280;5668;52.012;8.724;2023-03-11T08:11:32;99470.63;;;2.44;94.61
11223;BME280;5668;52.012;8.724;2023-03-11T08:13:59;99483.47;;;2.44;94.05
11223;BME280;5668;52.012;8.724;2023-03-11T08:16:27;99479.09;;;2.46;93.48
11223;BME280;5668;52.012;8.724;2023-03-11T08:18:54;99481.59;;;2.47;94.45
11223;BME280;5668;52.012;8.724;2023-03-11T08:21:23;99491.75;;;2.49;94.40
11223;BME280;5668;52.012;8.724;2023-03-11T08:23:52;99481.59;;;2.47;94.12
11223;BME280;5668;52.012;8.724;2023-03-11T08:26:24;99481.59;;;2.47;93.34
11223;BME280;5668;52.012;8.724;2023-03-11T08:28:51;99491.75;;;2.49;92.90
11223;BME280;5668;52.012;8.724;2023-03-11T08:31:20;99501.16;;;2.48;93.57
11223;BME280;5668;52.012;8.724;2023-03-11T08:33:51;99498.59;;;2.48;93.20
11223;BME280;5668;52.012;8.724;2023-03-11T08:36:19;99506.16;;;2.51;93.21
11223;BME280;5668;52.012;8.724;2023-03-11T08:38:47;99512.03;;;2.53;93.88
11223;BME280;5668;52.012;8.724;2023-03-11T08:41:14;99508.41;;;2.57;93.84
11223;BME280;5668;52.012;8.724;2023-03-11T08:43:43;99513.38;;;2.60;94.17
11223;BME280;5668;52.012;8.724;2023-03-11T08:46:14;99508.09;;;2.63;93.12
11223;BME280;5668;52.012;8.724;2023-03-11T08:48:43;99507.94;;;2.66;94.07
11223;BME280;5668;52.012;8.724;2023-03-11T08:51:11;99510.25;;;2.71;93.57
11223;BME280;5668;52.012;8.724;2023-03-11T08:53:39;99510.03;;;2.76;93.39
11223;BME280;5668;52.012;8.724;2023-03-11T08:56:07;99521.97;;;2.77;93.61
11223;BME280;5668;52.012;8.724;2023-03-11T08:58:34;99518.31;;;2.81;93.69
11223;BME280;5668;52.012;8.724;2023-03-11T09:01:03;99531.84;;;2.84;93.23
11223;BME280;5668;52.012;8.724;2023-03-11T09:03:31;99525.56;;;2.90;92.69
11223;BME280;5668;52.012;8.724;2023-03-11T09:05:59;99535.69;;;2.93;93.22
11223;BME280;5668;52.012;8.724;2023-03-11T09:08:26;99545.63;;;2.99;92.71
11223;BME280;5668;52.012;8.724;2023-03-11T09:10:54;99545.44;;;3.02;92.76
11223;BME280;5668;52.012;8.724;2023-03-11T09:13:21;99546.97;;;3.06;91.90
11223;BME280;5668;52.012;8.724;2023-03-11T09:15:49;99545.97;;;3.08;91.75
11223;BME280;5668;52.012;8.724;2023-03-11T09:18:18;99549.13;;;3.14;92.06
11223;BME280;5668;52.012;8.724;2023-03-11T09:20:46;99554.84;;;3.19;92.41
11223;BME280;5668;52.012;8.724;2023-03-11T09:23:15;99557.28;;;3.22;91.57
11223;BME280;5668;52.012;8.724;2023-03-11T09:25:43;99557.78;;;3.28;92.34
11223;BME280;5668;52.012;8.724;2023-03-11T09:28:10;99559.25;;;3.32;92.35
11223;BME280;5668;52.012;8.724;2023-03-11T09:30:37;99564.25;;;3.35;91.43
11223;BME280;5668;52.012;8.724;2023-03-11T09:33:05;99556.28;;;3.40;91.87
11223;BME280;5668;52.012;8.724;2023-03-11T09:35:34;99555.31;;;3.42;91.58
11223;BME280;5668;52.012;8.724;2023-03-11T09:38:01;99557.56;;;3.48;90.86
11223;BME280;5668;52.012;8.724;2023-03-11T09:40:41;99557.31;;;3.53;91.26
11223;BME280;5668;52.012;8.724;2023-03-11T09:43:15;99557.97;;;3.57;91.23
11223;BME280;5668;52.012;8.724;2023-03-11T09:45:52;99556.81;;;3.62;91.36
11223;BME280;5668;52.012;8.724;2023-03-11T09:48:25;99559.06;;;3.68;91.64
11223;BME280;5668;52.012;8.724;2023-03-11T09:51:01;99559.56;;;3.75;91.75
11223;BME280;5668;52.012;8.724;2023-03-11T09:53:39;99564.19;;;3.84;91.36
11223;BME280;5668;52.012;8.724;2023-03-11T09:56:08;99570.66;;;3.91;91.82
11223;BME280;5668;52.012;8.724;2023-03-11T09:58:38;99560.97;;;3.96;91.35
11223;BME280;5668;52.012;8.724;2023-03-11T10:01:15;99559.72;;;4.03;91.59
11223;BME280;5668;52.012;8.724;2023-03-11T10:03:44;99558.47;;;4.10;91.15
11223;BME280;5668;52.012;8.724;2023-03-11T10:06:15;99563.25;;;4.16;91.78
11223;BME280;5668;52.012;8.724;2023-03-11T10:08:46;99567.88;;;4.25;92.78
11223;BME280;5668;52.012;8.724;2023-03-11T10:11:42;99563.63;;;4.40;92.42
11223;BME280;5668;52.012;8.724;2023-03-11T10:14:27;99570.00;;;4.49;91.81
11223;BME280;5668;52.012;8.724;2023-03-11T10:17:06;99569.81;;;4.52;90.85
11223;BME280;5668;52.012;8.724;2023-03-11T10:19:42;99576.25;;;4.59;89.93
11223;BME280;5668;52.012;8.724;2023-03-11T10:22:18;99573.44;;;4.63;89.52
11223;BME280;5668;52.012;8.724;2023-03-11T10:24:59;99576.66;;;4.67;88.21
11223;BME280;5668;52.012;8.724;2023-03-11T10:27:34;99573.00;;;4.71;88.24
11223;BME280;5668;52.012;8.724;2023-03-11T10:30:08;99582.56;;;4.83;88.56
11223;BME280;5668;52.012;8.724;2023-03-11T10:32:41;99590.31;;;4.97;89.18
11223;BME280;5668;52.012;8.724;2023-03-11T10:35:16;99592.19;;;5.10;89.02
11223;BME280;5668;52.012;8.724;2023-03-11T10:37:52;99590.63;;;5.21;89.20
11223;BME280;5668;52.012;8.724;2023-03-11T10:40:27;99593.28;;;5.34;88.97
11223;BME280;5668;52.012;8.724;2023-03-11T10:42:57;99605.44;;;5.46;88.89
11223;BME280;5668;52.012;8.724;2023-03-11T10:45:30;99603.22;;;5.54;87.72
11223;BME280;5668;52.012;8.724;2023-03-11T10:47:59;99611.31;;;5.62;86.98
11223;BME280;5668;52.012;8.724;2023-03-11T10:50:26;99605.78;;;5.68;86.63
11223;BME280;5668;52.012;8.724;2023-03-11T10:53:07;99613.81;;;5.78;85.05
11223;BME280;5668;52.012;8.724;2023-03-11T10:55:43;99611.66;;;5.84;84.76
11223;BME280;5668;52.012;8.724;2023-03-11T10:58:13;99601.84;;;5.91;84.58
11223;BME280;5668;52.012;8.724;2023-03-11T11:00:40;99604.94;;;5.96;84.31
11223;BME280;5668;52.012;8.724;2023-03-11T11:03:17;99605.28;;;6.04;83.94
11223;BME280;5668;52.012;8.724;2023-03-11T11:05:57;99604.19;;;6.08;83.82
11223;BME280;5668;52.012;8.724;2023-03-11T11:08:26;99595.03;;;6.17;83.92
11223;BME280;5668;52.012;8.724;2023-03-11T11:10:55;99602.41;;;6.23;83.96
11223;BME280;5668;52.012;8.724;2023-03-11T11:13:24;99608.81;;;6.30;83.40
11223;BME280;5668;52.012;8.724;2023-03-11T11:15:57;99609.25;;;6.37;82.82
11223;BME280;5668;52.012;8.724;2023-03-11T11:18:27;99606.19;;;6.44;83.53
11223;BME280;5668;52.012;8.724;2023-03-11T11:21:01;99605.59;;;6.53;83.81
11223;BME280;5668;52.012;8.724;2023-03-11T11:23:37;99608.38;;;6.63;83.17
11223;BME280;5668;52.012;8.724;2023-03-11T11:26:13;99608.94;;;6.68;82.97
11223;BME280;5668;52.012;8.724;2023-03-11T11:28:41;99610.47;;;6.71;81.96
11223;BME280;5668;52.012;8.724;2023-03-11T11:31:21;99609.16;;;6.78;82.52
11223;BME280;5668;52.012;8.724;2023-03-11T11:33:50;99609.16;;;6.78;79.95
11223;BME280;5668;52.012;8.724;2023-03-11T11:36:19;99614.63;;;6.73;78.05
11223;BME280;5668;52.012;8.724;2023-03-11T11:38:52;99612.88;;;6.74;79.01
11223;BME280;5668;52.012;8.724;2023-03-11T11:41:21;99615.78;;;6.82;79.35
11223;BME280;5668;52.012;8.724;2023-03-11T11:43:51;99609.56;;;6.72;77.49
11223;BME280;5668;52.012;8.724;2023-03-11T11:46:22;99609.94;;;6.53;75.00
11223;BME280;5668;52.012;8.724;2023-03-11T11:48:59;99619.97;;;6.31;73.38
11223;BME280;5668;52.012;8.724;2023-03-11T11:51:32;99618.94;;;6.06;74.27
11223;BME280;5668;52.012;8.724;2023-03-11T11:54:09;99622.72;;;6.01;72.50
11223;BME280;5668;52.012;8.724;2023-03-11T11:56:40;99615.16;;;5.98;74.11
11223;BME280;5668;52.012;8.724;2023-03-11T11:59:12;99616.97;;;6.10;75.80
11223;BME280;5668;52.012;8.724;2023-03-11T12:01:49;99607.22;;;6.15;74.55
11223;BME280;5668;52.012;8.724;2023-03-11T12:04:42;99611.28;;;6.05;75.32
11223;BME280;5668;52.012;8.724;2023-03-11T12:07:35;99610.38;;;6.06;75.23
11223;BME280;5668;52.012;8.724;2023-03-11T12:10:20;99604.03;;;5.97;75.31
11223;BME280;5668;52.012;8.724;2023-03-11T12:15:40;99613.13;;;6.03;76.55
11223;BME280;5668;52.012;8.724;2023-03-11T12:18:14;99615.09;;;5.99;73.98
11223;BME280;5668;52.012;8.724;2023-03-11T12:20:46;99619.06;;;5.91;72.62
11223;BME280;5668;52.012;8.724;2023-03-11T12:23:18;99616.81;;;5.84;73.55
11223;BME280;5668;52.012;8.724;2023-03-11T12:28:42;99612.41;;;5.72;75.69
11223;BME280;5668;52.012;8.724;2023-03-11T12:31:12;99604.13;;;5.81;76.37
11223;BME280;5668;52.012;8.724;2023-03-11T12:33:41;99606.50;;;5.84;76.02
11223;BME280;5668;52.012;8.724;2023-03-11T12:36:21;99611.31;;;5.91;75.92
11223;BME280;5668;52.012;8.724;2023-03-11T12:38:50;99607.63;;;5.95;76.37
11223;BME280;5668;52.012;8.724;2023-03-11T12:41:31;99609.72;;;6.02;75.98
11223;BME280;5668;52.012;8.724;2023-03-11T12:44:20;99606.31;;;6.02;74.46
11223;BME280;5668;52.012;8.724;2023-03-11T12:47:21;99615.91;;;5.71;71.84
11223;BME280;5668;52.012;8.724;2023-03-11T12:49:51;99616.47;;;5.62;72.48
11223;BME280;5668;52.012;8.724;2023-03-11T12:52:29;99612.63;;;5.55;73.16
11223;BME280;5668;52.012;8.724;2023-03-11T12:55:28;99613.25;;;5.59;72.87
11223;BME280;5668;52.012;8.724;2023-03-11T12:58:20;99621.63;;;5.62;73.07
11223;BME280;5668;52.012;8.724;2023-03-11T13:03:50;99616.09;;;5.68;73.84
11223;BME280;5668;52.012;8.724;2023-03-11T13:06:55;99618.75;;;5.81;73.45
11223;BME280;5668;52.012;8.724;2023-03-11T13:09:28;99618.84;;;5.79;72.74
11223;BME280;5668;52.012;8.724;2023-03-11T13:11:55;99620.31;;;5.83;73.43
11223;BME280;5668;52.012;8.724;2023-03-11T13:14:27;99622.56;;;5.90;73.18
11223;BME280;5668;52.012;8.724;2023-03-11T13:16:56;99627.22;;;5.97;72.64
11223;BME280;5668;52.012;8.724;2023-03-11T13:19:47;99622.59;;;6.02;72.28
11223;BME280;5668;52.012;8.724;2023-03-11T13:25:30;99630.81;;;6.09;71.42
11223;BME280;5668;52.012;8.724;2023-03-11T13:30:52;99628.06;;;5.98;68.62
11223;BME280;5668;52.012;8.724;2023-03-11T13:33:32;99632.13;;;5.88;68.37
11223;BME280;5668;52.012;8.724;2023-03-11T13:36:15;99629.63;;;6.00;68.90
11223;BME280;5668;52.012;8.724;2023-03-11T13:39:04;99638.03;;;6.16;70.47
11223;BME280;5668;52.012;8.724;2023-03-11T13:41:39;99633.97;;;6.27;71.74
11223;BME280;5668;52.012;8.724;2023-03-11T13:44:13;99639.31;;;6.38;70.20
11223;BME280;5668;52.012;8.724;2023-03-11T13:46:43;99641.06;;;6.37;68.64
11223;BME280;5668;52.012;8.724;2023-03-11T13:49:26;99642.31;;;6.44;68.84
11223;BME280;5668;52.012;8.724;2023-03-11T13:51:56;99641.00;;;6.51;69.59